createdAt,value
2019-04-25T00:00:47.788Z,13.70
2019-04-25T00:04:52.606Z,13.70
2019-04-25T00:08:56.919Z,13.60
2019-04-25T00:13:01.674Z,13.50
2019-04-25T00:17:07.849Z,13.50
2019-04-25T00:21:23.086Z,13.40
2019-04-25T00:25:45.148Z,13.40
2019-04-25T00:29:47.391Z,13.30
2019-04-25T00:33:53.234Z,13.20
2019-04-25T00:37:57.609Z,13.20
2019-04-25T00:42:02.329Z,13.20
2019-04-25T00:46:06.749Z,13.10
2019-04-25T00:50:12.001Z,13.10
2019-04-25T00:54:16.340Z,13.00
2019-04-25T00:58:48.966Z,13.00
2019-04-25T01:02:54.591Z,12.90
2019-04-25T01:06:58.768Z,12.80
2019-04-25T01:11:02.975Z,12.80
2019-04-25T01:15:09.521Z,12.70
2019-04-25T01:19:13.815Z,12.60
2019-04-25T01:23:18.038Z,12.50
2019-04-25T01:27:23.362Z,12.50
2019-04-25T01:31:29.393Z,12.40
2019-04-25T01:35:50.552Z,12.40
2019-04-25T01:40:19.012Z,12.30
2019-04-25T01:44:30.028Z,12.20
2019-04-25T01:48:34.330Z,12.10
2019-04-25T01:52:38.615Z,12.00
2019-04-25T01:56:44.171Z,12.00
2019-04-25T02:00:51.356Z,11.90
2019-04-25T02:04:58.777Z,11.90
2019-04-25T02:09:01.611Z,11.80
2019-04-25T02:13:08.493Z,11.70
2019-04-25T02:17:14.183Z,11.70
2019-04-25T02:21:18.387Z,11.60
2019-04-25T02:25:22.971Z,11.60
2019-04-25T02:29:28.463Z,11.50
2019-04-25T02:33:34.053Z,11.40
2019-04-25T02:37:38.534Z,11.40
2019-04-25T02:41:44.486Z,11.30
2019-04-25T02:46:07.956Z,11.20
2019-04-25T02:50:20.662Z,11.20
2019-04-25T02:54:24.952Z,11.10
2019-04-25T02:58:29.192Z,11.00
2019-04-25T03:02:34.404Z,10.90
2019-04-25T03:06:39.338Z,10.80
2019-04-25T03:10:44.295Z,10.80
2019-04-25T03:14:48.720Z,10.80
2019-04-25T03:19:13.994Z,10.70
2019-04-25T03:23:43.908Z,10.70
2019-04-25T03:27:48.562Z,10.70
2019-04-25T03:31:55.623Z,10.70
2019-04-25T03:35:58.711Z,10.70
2019-04-25T03:40:05.174Z,10.70
2019-04-25T03:44:08.812Z,10.70
2019-04-25T03:48:13.980Z,10.70
2019-04-25T03:52:18.320Z,10.70
2019-04-25T03:56:22.523Z,10.70
2019-04-25T04:00:26.800Z,10.60
2019-04-25T04:04:31.016Z,10.60
2019-04-25T04:08:35.739Z,10.60
2019-04-25T04:12:40.036Z,10.60
2019-04-25T04:17:05.089Z,10.60
2019-04-25T04:21:23.510Z,10.50
2019-04-25T04:25:28.086Z,10.50
2019-04-25T04:29:33.153Z,10.50
2019-04-25T04:33:37.540Z,10.50
2019-04-25T04:37:43.073Z,10.40
2019-04-25T04:41:47.381Z,10.40
2019-04-25T04:45:51.608Z,10.40
2019-04-25T04:49:55.815Z,10.40
2019-04-25T04:54:00.036Z,10.50
2019-04-25T04:58:04.361Z,10.50
2019-04-25T05:02:24.192Z,10.50
2019-04-25T05:06:46.402Z,10.50
2019-04-25T05:10:50.907Z,10.60
2019-04-25T05:14:55.132Z,10.60
2019-04-25T05:18:59.351Z,10.70
2019-04-25T05:23:03.624Z,10.70
2019-04-25T05:27:08.238Z,10.80
2019-04-25T05:31:18.139Z,10.80
2019-04-25T05:35:24.299Z,10.90
2019-04-25T05:39:29.139Z,11.00
2019-04-25T05:43:34.072Z,11.00
2019-04-25T05:47:38.288Z,11.10
2019-04-25T05:51:43.801Z,11.20
2019-04-25T05:55:48.555Z,11.30
2019-04-25T05:59:53.713Z,11.30
2019-04-25T06:03:58.050Z,11.40
2019-04-25T06:08:04.102Z,11.50
2019-04-25T06:12:30.274Z,11.60
2019-04-25T06:16:35.405Z,11.70
2019-04-25T06:20:39.687Z,11.70
2019-04-25T06:24:48.801Z,11.80
2019-04-25T06:28:59.332Z,11.90
2019-04-25T06:32:58.846Z,12.00
2019-04-25T06:37:04.797Z,12.10
2019-04-25T06:41:09.031Z,12.20
2019-04-25T06:45:44.249Z,12.30
2019-04-25T06:49:49.288Z,12.40
2019-04-25T06:53:53.524Z,12.60
2019-04-25T06:58:09.248Z,12.70
2019-04-25T07:02:04.206Z,12.80
2019-04-25T07:06:08.702Z,12.90
2019-04-25T07:10:13.523Z,13.10
2019-04-25T07:14:17.736Z,13.30
2019-04-25T07:18:23.548Z,13.50
2019-04-25T07:22:28.689Z,13.70
2019-04-25T07:26:58.227Z,13.80
2019-04-25T07:31:20.332Z,14.00
2019-04-25T07:35:25.342Z,14.20
2019-04-25T07:39:29.651Z,14.50
2019-04-25T07:43:35.092Z,14.60
2019-04-25T07:47:39.747Z,14.80
2019-04-25T07:51:45.430Z,15.10
2019-04-25T07:55:49.662Z,15.20
2019-04-25T07:59:53.940Z,15.30
2019-04-25T08:03:58.233Z,15.50
2019-04-25T08:08:04.880Z,15.70
2019-04-25T08:12:09.159Z,15.90
2019-04-25T08:16:15.470Z,16.10
2019-04-25T08:20:20.216Z,16.30
2019-04-25T08:24:25.062Z,16.60
2019-04-25T08:28:29.605Z,16.90
2019-04-25T08:32:35.498Z,17.20
2019-04-25T08:36:41.494Z,17.50
2019-04-25T08:40:45.822Z,17.60
2019-04-25T08:44:50.015Z,17.90
2019-04-25T08:53:13.668Z,18.20
2019-04-25T08:57:37.933Z,18.20
2019-04-25T09:02:07.436Z,18.20
2019-04-25T09:06:13.375Z,18.20
2019-04-25T09:10:17.631Z,18.10
2019-04-25T09:14:21.856Z,18.10
2019-04-25T09:18:26.177Z,18.10
2019-04-25T09:22:30.407Z,18.20
2019-04-25T09:26:36.078Z,18.30
2019-04-25T09:30:40.463Z,18.40
2019-04-25T09:34:44.707Z,18.60
2019-04-25T09:38:51.215Z,18.90
2019-04-25T09:42:55.480Z,19.20
2019-04-25T09:46:59.847Z,19.40
2019-04-25T09:51:26.156Z,19.70
2019-04-25T09:55:39.582Z,19.90
2019-04-25T09:59:45.077Z,20.10
2019-04-25T10:03:49.603Z,20.30
2019-04-25T10:07:58.094Z,20.60
2019-04-25T10:12:02.294Z,20.70
2019-04-25T10:16:10.569Z,20.80
2019-04-25T10:20:18.179Z,20.80
2019-04-25T10:24:22.508Z,20.90
2019-04-25T10:28:27.399Z,21.10
2019-04-25T10:32:33.373Z,21.20
2019-04-25T10:36:39.826Z,21.40
2019-04-25T10:40:46.128Z,21.50
2019-04-25T10:44:50.887Z,21.70
2019-04-25T10:48:56.204Z,21.90
2019-04-25T10:53:00.782Z,22.00
2019-04-25T10:57:06.528Z,22.10
2019-04-25T11:01:11.056Z,22.20
2019-04-25T11:05:16.577Z,22.20
2019-04-25T11:09:25.418Z,22.10
2019-04-25T11:13:29.856Z,22.10
2019-04-25T11:17:34.187Z,22.10
2019-04-25T11:21:39.058Z,22.20
2019-04-25T11:25:44.932Z,22.20
2019-04-25T11:29:49.335Z,22.30
2019-04-25T11:33:54.479Z,22.50
2019-04-25T11:38:01.179Z,22.70
2019-04-25T11:42:10.663Z,22.90
2019-04-25T11:46:16.338Z,23.00
2019-04-25T11:50:20.859Z,23.20
2019-04-25T11:54:25.084Z,23.30
2019-04-25T11:58:29.498Z,23.20
2019-04-25T12:02:34.366Z,23.20
2019-04-25T12:06:38.813Z,23.10
2019-04-25T12:10:45.775Z,23.10
2019-04-25T12:14:49.573Z,23.10
2019-04-25T12:18:55.320Z,23.20
2019-04-25T12:23:08.369Z,23.40
2019-04-25T12:27:05.676Z,23.50
2019-04-25T12:31:09.898Z,23.80
2019-04-25T12:35:14.302Z,24.00
2019-04-25T12:39:18.707Z,24.30
2019-04-25T12:43:24.571Z,24.50
2019-04-25T12:47:30.039Z,24.70
2019-04-25T12:51:34.259Z,24.80
2019-04-25T12:55:38.481Z,24.90
2019-04-25T12:59:45.005Z,24.80
2019-04-25T13:03:48.560Z,24.70
2019-04-25T13:07:56.690Z,24.70
2019-04-25T13:11:58.639Z,24.60
2019-04-25T13:16:04.354Z,24.60
2019-04-25T13:20:09.274Z,24.60
2019-04-25T13:24:13.531Z,24.60
2019-04-25T13:28:44.116Z,24.60
2019-04-25T13:33:03.043Z,24.60
2019-04-25T13:37:08.786Z,24.60
2019-04-25T13:41:13.225Z,24.60
2019-04-25T13:45:17.507Z,24.60
2019-04-25T13:49:22.627Z,24.50
2019-04-25T13:53:27.346Z,24.40
2019-04-25T13:57:32.331Z,24.40
2019-04-25T14:01:36.568Z,24.40
2019-04-25T14:05:41.218Z,24.40
2019-04-25T14:09:45.447Z,24.40
2019-04-25T14:13:49.648Z,24.40
2019-04-25T14:18:18.722Z,24.40
2019-04-25T14:22:23.394Z,24.50
2019-04-25T14:26:27.950Z,24.60
2019-04-25T14:30:34.230Z,24.70
2019-04-25T14:34:38.207Z,24.90
2019-04-25T14:38:42.428Z,25.10
2019-04-25T14:42:46.665Z,25.30
2019-04-25T14:46:50.886Z,25.50
2019-04-25T14:50:55.204Z,25.60
2019-04-25T14:55:24.820Z,25.70
2019-04-25T14:59:29.202Z,25.80
2019-04-25T15:03:33.500Z,25.90
2019-04-25T15:07:37.759Z,26.00
2019-04-25T15:11:42.112Z,26.10
2019-04-25T15:15:46.423Z,26.00
2019-04-25T15:19:50.691Z,25.90
2019-04-25T15:24:00.396Z,25.80
2019-04-25T15:28:00.867Z,25.70
2019-04-25T15:32:06.731Z,25.70
2019-04-25T15:36:28.972Z,25.70
2019-04-25T15:40:38.214Z,25.70
2019-04-25T15:44:59.079Z,25.70
2019-04-25T15:49:03.383Z,25.80
2019-04-25T15:53:07.675Z,25.70
2019-04-25T15:57:12.171Z,25.80
2019-04-25T16:01:16.482Z,26.00
2019-04-25T16:05:20.683Z,26.40
2019-04-25T16:09:24.901Z,26.70
2019-04-25T16:13:30.150Z,26.90
2019-04-25T16:17:34.859Z,26.70
2019-04-25T16:21:39.127Z,26.60
2019-04-25T16:25:43.320Z,26.30
2019-04-25T16:29:47.615Z,26.10
2019-04-25T16:33:51.948Z,25.90
2019-04-25T16:37:56.181Z,25.70
2019-04-25T16:42:00.494Z,25.50
2019-04-25T16:46:04.758Z,25.50
2019-04-25T16:50:09.395Z,25.30
2019-04-25T16:54:13.879Z,25.10
2019-04-25T16:58:18.272Z,25.00
2019-04-25T17:02:32.951Z,24.80
2019-04-25T17:06:32.240Z,24.70
2019-04-25T17:10:36.940Z,24.50
2019-04-25T17:15:15.408Z,24.40
2019-04-25T17:19:25.148Z,24.30
2019-04-25T17:23:30.089Z,24.10
2019-04-25T17:27:37.042Z,24.00
2019-04-25T17:32:00.724Z,23.90
2019-04-25T17:36:33.146Z,23.80
2019-04-25T17:40:36.492Z,23.70
2019-04-25T17:44:40.707Z,23.50
2019-04-25T17:48:45.003Z,23.40
2019-04-25T17:52:49.228Z,23.30
2019-04-25T17:56:53.508Z,23.20
2019-04-25T18:00:57.851Z,23.10
2019-04-25T18:05:02.100Z,23.00
2019-04-25T18:09:07.917Z,22.90
2019-04-25T18:13:12.128Z,22.80
2019-04-25T18:17:16.608Z,22.70
2019-04-25T18:21:20.919Z,22.50
2019-04-25T18:25:36.881Z,22.40
2019-04-25T18:29:41.637Z,22.30
2019-04-25T18:33:46.809Z,22.20
2019-04-25T18:38:07.998Z,22.10
2019-04-25T18:42:40.398Z,22.00
2019-04-25T18:46:47.222Z,21.90
2019-04-25T18:50:51.793Z,21.70
2019-04-25T18:55:07.428Z,21.60
2019-04-25T18:59:29.608Z,21.50
2019-04-25T19:04:01.948Z,21.40
2019-04-25T19:08:06.567Z,21.30
2019-04-25T19:12:10.887Z,21.20
2019-04-25T19:16:15.107Z,21.10
2019-04-25T19:20:19.532Z,21.00
2019-04-25T19:24:23.780Z,20.90
2019-04-25T19:28:28.047Z,20.90
2019-04-25T19:32:32.308Z,20.80
2019-04-25T19:36:36.580Z,20.70
2019-04-25T19:40:56.134Z,20.60
2019-04-25T19:45:00.571Z,20.50
2019-04-25T19:49:05.042Z,20.50
2019-04-25T19:53:09.252Z,20.40
2019-04-25T19:57:13.482Z,20.40
2019-04-25T20:01:17.774Z,20.30
2019-04-25T20:05:31.223Z,20.20
2019-04-25T20:10:00.828Z,20.20
2019-04-25T20:14:05.240Z,20.10
2019-04-25T20:18:09.438Z,20.00
2019-04-25T20:22:13.655Z,20.00
2019-04-25T20:26:17.884Z,19.90
2019-04-25T20:30:23.610Z,19.90
2019-04-25T20:34:28.088Z,19.80
2019-04-25T20:38:32.330Z,19.80
2019-04-25T20:42:36.555Z,19.90
2019-04-25T20:46:41.692Z,19.70
2019-04-25T20:50:46.927Z,19.70
2019-04-25T20:54:51.203Z,19.70
2019-04-25T20:58:55.625Z,19.60
2019-04-25T21:02:59.935Z,19.50
2019-04-25T21:07:04.238Z,19.50
2019-04-25T21:11:08.456Z,19.40
2019-04-25T21:15:30.663Z,19.40
2019-04-25T21:19:38.066Z,19.30
2019-04-25T21:23:42.319Z,19.20
2019-04-25T21:27:46.531Z,19.10
2019-04-25T21:31:51.316Z,19.00
2019-04-25T21:35:55.681Z,19.00
2019-04-25T21:40:22.070Z,18.90
2019-04-25T21:44:27.642Z,18.80
2019-04-25T21:48:31.903Z,18.70
2019-04-25T21:52:36.507Z,18.60
2019-04-25T21:56:41.281Z,18.50
2019-04-25T22:01:06.696Z,18.30
2019-04-25T22:05:11.908Z,18.10
2019-04-25T22:09:19.423Z,18.00
2019-04-25T22:13:23.838Z,17.80
2019-04-25T22:17:28.476Z,17.70
2019-04-25T22:21:38.248Z,17.60
2019-04-25T22:25:38.871Z,17.50
2019-04-25T22:29:45.011Z,17.40
2019-04-25T22:33:59.758Z,17.30
2019-04-25T22:38:04.345Z,17.20
2019-04-25T22:42:08.659Z,17.10
2019-04-25T22:46:25.269Z,17.00
2019-04-25T22:50:19.187Z,17.00
2019-04-25T22:54:24.664Z,16.90
2019-04-25T22:58:28.933Z,16.80
2019-04-25T23:02:52.467Z,16.70
2019-04-25T23:06:56.759Z,16.70
2019-04-25T23:11:02.725Z,16.60
2019-04-25T23:15:08.803Z,16.50
2019-04-25T23:19:13.447Z,16.50
2019-04-25T23:23:17.923Z,16.40
2019-04-25T23:27:47.308Z,16.40
2019-04-25T23:31:51.995Z,16.30
2019-04-25T23:35:56.511Z,16.30
2019-04-25T23:40:00.795Z,16.20
2019-04-25T23:44:05.415Z,16.20
2019-04-25T23:48:10.321Z,16.10
2019-04-25T23:52:15.129Z,16.10
2019-04-25T23:56:19.310Z,16.00
